Time;durP1;ratioP1;P1;durP2;ratioP2;P2;SDS_P1;SDS_P2;PMS_P1;PMS_P2;Temp;Humidity;BMP_temperature;BMP_pressure;BME280_temperature;BME280_humidity;BME280_pressure;Samples;Min_cycle;Max_cycle;Signal;HPM_P1;HPM_P2
2022/04/24 00:00:09;;;;;;;18.77;14.20;;;10.50;6.70;;;;;;7369863;19;20017;-63
2022/04/24 00:02:40;;;;;;;17.30;13.30;;;10.40;7.40;;;;;;7392621;19;20048;-61
2022/04/24 00:05:10;;;;;;;23.15;13.18;;;10.30;8.00;;;;;;7367574;19;20376;-62
2022/04/24 00:07:40;;;;;;;17.88;13.38;;;10.20;8.40;;;;;;7361542;19;20101;-62
2022/04/24 00:10:12;;;;;;;20.35;14.00;;;10.20;8.90;;;;;;7369451;19;20086;-62
2022/04/24 00:12:44;;;;;;;20.42;13.43;;;10.20;9.20;;;;;;7369727;19;20002;-62
2022/04/24 00:15:14;;;;;;;16.77;12.65;;;10.30;9.00;;;;;;7368540;19;20386;-62
2022/04/24 00:17:44;;;;;;;16.13;12.73;;;10.30;8.20;;;;;;7363202;19;20015;-62
2022/04/24 00:20:14;;;;;;;16.77;12.73;;;10.30;8.00;;;;;;7390231;19;20011;-62
2022/04/24 00:22:44;;;;;;;19.35;13.27;;;10.30;8.00;;;;;;7369135;19;20003;-61
2022/04/24 00:25:14;;;;;;;17.63;12.85;;;10.30;8.20;;;;;;7368886;19;20141;-62
2022/04/24 00:27:46;;;;;;;19.25;13.77;;;10.30;8.00;;;;;;7361442;19;20063;-62
2022/04/24 00:30:16;;;;;;;18.70;13.73;;;10.40;8.00;;;;;;7368617;19;20094;-61
2022/04/24 00:32:46;;;;;;;17.77;12.32;;;10.40;7.90;;;;;;7367314;19;20027;-61
2022/04/24 00:35:16;;;;;;;16.25;12.13;;;10.40;7.90;;;;;;7388838;19;20023;-63
2022/04/24 00:37:46;;;;;;;17.50;12.70;;;10.40;7.90;;;;;;7359542;19;20074;-62
2022/04/24 00:40:18;;;;;;;17.30;12.63;;;10.40;8.00;;;;;;7367880;19;20604;-62
2022/04/24 00:42:55;;;;;;;18.73;13.07;;;10.40;7.50;;;;;;7368253;19;20070;-62
2022/04/24 00:45:24;;;;;;;16.80;12.90;;;10.40;7.90;;;;;;7366176;19;20010;-62
2022/04/24 00:47:56;;;;;;;17.60;13.32;;;10.40;8.00;;;;;;7360942;19;20014;-63
2022/04/24 00:50:26;;;;;;;17.98;12.57;;;10.30;8.00;;;;;;7389907;19;20852;-61
2022/04/24 00:52:56;;;;;;;19.38;13.73;;;10.30;8.40;;;;;;7364946;19;20013;-62
2022/04/24 00:55:26;;;;;;;17.17;13.40;;;10.30;8.60;;;;;;7365990;19;20054;-62
2022/04/24 00:58:05;;;;;;;16.25;12.63;;;10.30;8.90;;;;;;7357819;19;20081;-62
2022/04/24 01:00:35;;;;;;;17.38;12.85;;;10.30;8.40;;;;;;7368642;19;20007;-61
2022/04/24 01:03:05;;;;;;;16.58;13.38;;;10.30;8.00;;;;;;7368025;19;20399;-61
2022/04/24 01:05:35;;;;;;;18.52;13.18;;;10.40;8.40;;;;;;7388050;19;20051;-62
2022/04/24 01:08:05;;;;;;;20.05;13.43;;;10.30;8.10;;;;;;7358181;19;20374;-62
2022/04/24 01:10:39;;;;;;;17.50;12.82;;;10.30;8.50;;;;;;7366981;19;20069;-61
2022/04/24 01:13:12;;;;;;;18.23;12.87;;;10.30;8.20;;;;;;7365921;19;20082;-62
2022/04/24 01:15:42;;;;;;;15.80;12.13;;;10.30;8.20;;;;;;7366033;19;20081;-61
2022/04/24 01:18:13;;;;;;;17.88;13.10;;;10.40;8.10;;;;;;7360248;19;20010;-62
2022/04/24 01:20:46;;;;;;;17.15;12.63;;;10.40;8.00;;;;;;7377110;19;20534;-64
2022/04/24 01:23:16;;;;;;;15.35;11.95;;;10.40;8.00;;;;;;7390133;19;20055;-63
2022/04/24 01:25:47;;;;;;;18.65;11.60;;;10.40;7.90;;;;;;7366536;19;20031;-63
2022/04/24 01:28:16;;;;;;;17.08;12.43;;;10.40;7.90;;;;;;7359331;19;20006;-63
2022/04/24 01:30:46;;;;;;;16.10;12.23;;;10.50;7.30;;;;;;7367435;19;20025;-62
2022/04/24 01:33:16;;;;;;;14.90;11.20;;;10.50;7.20;;;;;;7366800;19;20021;-61
2022/04/24 01:35:49;;;;;;;16.98;12.00;;;10.50;6.90;;;;;;7364985;19;20090;-62
2022/04/24 01:38:19;;;;;;;15.60;12.65;;;10.50;6.60;;;;;;7380131;19;20027;-63
2022/04/24 01:40:49;;;;;;;15.88;12.13;;;10.50;6.70;;;;;;7364227;19;20074;-63
2022/04/24 01:43:20;;;;;;;16.45;11.85;;;10.60;6.30;;;;;;7366634;19;20010;-62
2022/04/24 01:45:51;;;;;;;14.02;10.70;;;10.60;5.80;;;;;;7364003;19;20885;-62
2022/04/24 01:48:22;;;;;;;17.60;11.98;;;10.60;6.00;;;;;;7356886;19;20011;-63
2022/04/24 01:50:57;;;;;;;15.70;11.65;;;10.60;6.00;;;;;;7366614;19;20025;-62
2022/04/24 01:53:27;;;;;;;16.48;12.30;;;10.60;6.00;;;;;;7387409;19;20014;-62
2022/04/24 01:55:57;;;;;;;16.40;11.70;;;10.60;6.30;;;;;;7365670;19;20098;-63
2022/04/24 01:58:28;;;;;;;17.13;12.05;;;10.60;5.80;;;;;;7357667;19;20028;-63
2022/04/24 02:00:58;;;;;;;16.60;11.20;;;10.50;6.30;;;;;;7364541;19;20328;-61
2022/04/24 02:03:29;;;;;;;14.45;10.88;;;10.50;6.70;;;;;;7366458;19;20022;-62
2022/04/24 02:06:01;;;;;;;15.95;11.75;;;10.50;6.80;;;;;;7366673;19;20014;-63
2022/04/24 02:08:38;;;;;;;16.40;11.80;;;10.50;6.90;;;;;;7380550;19;20018;-62
2022/04/24 02:11:08;;;;;;;16.48;11.85;;;10.50;6.40;;;;;;7365339;19;20002;-62
2022/04/24 02:13:39;;;;;;;17.10;12.00;;;10.60;6.20;;;;;;7364535;19;20529;-62
2022/04/24 02:16:11;;;;;;;17.48;11.30;;;10.60;6.20;;;;;;7367019;19;20015;-63
2022/04/24 02:18:41;;;;;;;15.57;11.38;;;10.60;7.10;;;;;;7358241;19;20091;-64
2022/04/24 02:21:13;;;;;;;18.23;12.00;;;10.60;6.90;;;;;;7364818;19;20097;-62
2022/04/24 02:23:46;;;;;;;14.43;10.75;;;10.70;5.50;;;;;;7365729;19;20010;-62
2022/04/24 02:26:22;;;;;;;15.02;11.75;;;10.70;5.40;;;;;;7387281;19;20049;-63
2022/04/24 02:28:51;;;;;;;13.70;10.77;;;10.70;5.20;;;;;;7358100;19;20020;-63
2022/04/24 02:31:21;;;;;;;17.48;11.60;;;10.70;5.50;;;;;;7364738;19;20027;-62
2022/04/24 02:33:52;;;;;;;16.23;11.55;;;10.70;6.70;;;;;;7362414;19;20014;-63
2022/04/24 02:36:25;;;;;;;15.15;11.00;;;10.70;6.30;;;;;;7365050;19;20081;-62
2022/04/24 02:38:55;;;;;;;15.55;11.63;;;10.70;6.80;;;;;;7357498;19;20015;-63
2022/04/24 02:41:29;;;;;;;16.80;12.05;;;10.70;7.60;;;;;;7385655;19;20086;-64
2022/04/24 02:43:58;;;;;;;15.77;11.55;;;10.60;9.70;;;;;;7365354;19;20077;-63
2022/04/24 02:46:28;;;;;;;16.05;11.55;;;10.50;11.80;;;;;;7365248;19;20014;-63
2022/04/24 02:48:58;;;;;;;16.60;11.80;;;10.50;11.80;;;;;;7357395;19;20037;-62
2022/04/24 02:51:31;;;;;;;17.52;13.30;;;10.50;14.40;;;;;;7364945;19;20014;-62
2022/04/24 02:54:01;;;;;;;18.15;12.38;;;10.40;16.60;;;;;;7363477;19;20015;-64
2022/04/24 02:56:30;;;;;;;17.85;13.02;;;10.40;18.40;;;;;;7385882;19;20604;-62
2022/04/24 02:59:00;;;;;;;17.10;13.20;;;10.30;19.10;;;;;;7357641;19;20006;-62
2022/04/24 03:01:30;;;;;;;19.50;13.88;;;10.10;22.10;;;;;;7363685;19;20007;-63
2022/04/24 03:04:00;;;;;;;20.42;14.10;;;10.00;26.50;;;;;;7362952;19;20014;-62
2022/04/24 03:06:33;;;;;;;20.45;13.65;;;10.00;28.30;;;;;;7365110;19;20007;-62
2022/04/24 03:09:03;;;;;;;19.60;13.85;;;9.90;27.60;;;;;;7357473;19;20023;-64
2022/04/24 03:11:32;;;;;;;22.10;15.77;;;10.00;30.50;;;;;;7384552;19;20016;-63
2022/04/24 03:14:02;;;;;;;23.08;16.60;;;9.80;33.30;;;;;;7361684;19;20035;-62
2022/04/24 03:16:32;;;;;;;26.52;17.55;;;9.80;34.40;;;;;;7363622;19;20107;-62
2022/04/24 03:19:02;;;;;;;24.35;17.13;;;9.80;37.60;;;;;;7354789;19;20478;-62
2022/04/24 03:21:34;;;;;;;24.42;17.05;;;9.70;38.40;;;;;;7363108;19;20014;-61
2022/04/24 03:24:04;;;;;;;27.38;17.23;;;9.60;39.50;;;;;;7362078;19;20117;-62
2022/04/24 03:26:34;;;;;;;25.05;17.55;;;9.70;41.40;;;;;;7385623;19;20550;-62
2022/04/24 03:29:04;;;;;;;22.77;16.50;;;9.60;41.90;;;;;;7356791;19;20015;-62
2022/04/24 03:31:34;;;;;;;26.55;17.73;;;9.60;42.20;;;;;;7361053;19;20010;-62
2022/04/24 03:34:05;;;;;;;23.55;16.38;;;9.50;41.80;;;;;;7361138;19;20471;-62
2022/04/24 03:36:38;;;;;;;27.05;19.00;;;9.50;41.60;;;;;;7364315;19;20010;-61
2022/04/24 03:39:08;;;;;;;24.42;18.17;;;9.50;41.80;;;;;;7358307;19;20798;-61
2022/04/24 03:41:37;;;;;;;22.10;16.42;;;9.50;42.20;;;;;;7384859;19;20014;-61
2022/04/24 03:44:07;;;;;;;26.02;17.92;;;9.50;42.20;;;;;;7361124;19;20014;-61
2022/04/24 03:46:37;;;;;;;22.27;16.25;;;9.40;42.40;;;;;;7359507;19;20017;-61
2022/04/24 03:49:07;;;;;;;25.63;16.10;;;9.40;41.70;;;;;;7356667;19;20092;-62
2022/04/24 03:51:39;;;;;;;24.23;17.27;;;9.40;41.90;;;;;;7363155;19;20007;-62
2022/04/24 03:54:09;;;;;;;24.48;16.98;;;9.50;41.80;;;;;;7362593;19;20018;-62
2022/04/24 03:56:39;;;;;;;24.95;17.35;;;9.50;41.80;;;;;;7381342;19;20014;-61
2022/04/24 03:59:09;;;;;;;20.90;16.42;;;9.50;41.90;;;;;;7355575;19;20014;-61
2022/04/24 04:01:39;;;;;;;22.73;15.85;;;9.50;41.00;;;;;;7360806;19;20018;-61
2022/04/24 04:04:09;;;;;;;25.08;17.15;;;9.50;40.10;;;;;;7361559;19;20011;-62
2022/04/24 04:06:41;;;;;;;22.73;15.88;;;9.50;39.60;;;;;;7361405;19;20507;-62
2022/04/24 04:09:11;;;;;;;22.10;16.38;;;9.50;40.50;;;;;;7356575;19;20010;-62
2022/04/24 04:11:41;;;;;;;22.10;16.48;;;9.50;38.70;;;;;;7383643;19;20078;-62
2022/04/24 04:14:11;;;;;;;22.52;15.70;;;9.50;39.70;;;;;;7360641;19;20467;-61
2022/04/24 04:16:41;;;;;;;21.58;16.15;;;9.50;39.50;;;;;;7359282;19;21086;-62
2022/04/24 04:19:11;;;;;;;24.90;17.08;;;9.50;40.60;;;;;;7358556;19;20023;-62
2022/04/24 04:21:44;;;;;;;23.02;16.88;;;9.50;40.80;;;;;;7361117;19;20416;-62
2022/04/24 04:24:15;;;;;;;24.17;17.80;;;9.50;41.20;;;;;;7360660;19;20022;-61
2022/04/24 04:26:45;;;;;;;23.67;17.42;;;9.50;41.90;;;;;;7358380;19;20014;-62
2022/04/24 04:29:14;;;;;;;22.80;16.58;;;9.60;42.50;;;;;;7378867;19;20014;-62
2022/04/24 04:31:44;;;;;;;25.30;17.75;;;9.50;41.80;;;;;;7365719;19;20544;-61
2022/04/24 04:34:14;;;;;;;24.00;17.42;;;9.50;42.80;;;;;;7367713;19;20529;-61
2022/04/24 04:36:47;;;;;;;24.63;17.80;;;9.60;43.80;;;;;;7365792;19;20015;-61
2022/04/24 04:39:17;;;;;;;28.33;17.48;;;9.60;44.40;;;;;;7367421;19;20017;-62
2022/04/24 04:41:46;;;;;;;25.08;16.50;;;9.70;45.30;;;;;;7368383;19;20006;-62
2022/04/24 04:44:16;;;;;;;22.10;16.58;;;9.80;45.50;;;;;;7389235;19;20015;-62
2022/04/24 04:46:46;;;;;;;23.05;16.60;;;9.80;44.40;;;;;;7364425;19;20011;-62
2022/04/24 04:49:16;;;;;;;25.55;17.20;;;9.90;44.00;;;;;;7364658;19;20066;-62
2022/04/24 04:51:49;;;;;;;25.50;17.35;;;9.90;44.30;;;;;;7365700;19;20371;-62
2022/04/24 04:54:19;;;;;;;26.17;17.63;;;9.80;45.00;;;;;;7368088;19;20021;-61
2022/04/24 04:56:48;;;;;;;29.60;18.88;;;9.80;46.20;;;;;;7363689;19;20021;-61
2022/04/24 04:59:18;;;;;;;25.75;18.17;;;9.80;46.60;;;;;;7387616;19;20011;-62
2022/04/24 05:01:48;;;;;;;31.40;18.92;;;9.70;46.50;;;;;;7366997;19;20478;-62
2022/04/24 05:04:18;;;;;;;27.83;16.35;;;9.70;48.90;;;;;;7367253;19;20014;-63
2022/04/24 05:06:51;;;;;;;16.02;10.52;;;9.60;48.80;;;;;;7364303;19;20680;-62
2022/04/24 05:09:20;;;;;;;10.07;6.53;;;9.20;46.10;;;;;;7366486;19;20074;-62
2022/04/24 05:11:50;;;;;;;9.73;5.25;;;9.10;46.50;;;;;;7367075;19;20389;-63
2022/04/24 05:14:20;;;;;;;5.93;3.72;;;9.00;45.50;;;;;;7389096;19;20132;-62
2022/04/24 05:16:50;;;;;;;5.47;2.22;;;9.00;45.40;;;;;;7366398;19;20015;-63
2022/04/24 05:19:20;;;;;;;11.02;2.15;;;8.80;43.30;;;;;;7365051;19;20018;-63
2022/04/24 05:21:52;;;;;;;2.25;1.10;;;8.70;42.90;;;;;;7367350;19;20010;-63
2022/04/24 05:24:22;;;;;;;2.20;0.70;;;8.70;40.10;;;;;;7366879;19;20011;-62
2022/04/24 05:26:52;;;;;;;1.00;0.40;;;8.60;38.70;;;;;;7365599;19;20053;-63
2022/04/24 05:29:22;;;;;;;2.97;0.30;;;8.40;34.60;;;;;;7386460;19;20069;-63
2022/04/24 05:31:52;;;;;;;1.65;0.35;;;8.40;36.50;;;;;;7366246;19;20025;-62
2022/04/24 05:34:22;;;;;;;0.45;0.20;;;8.40;39.60;;;;;;7366243;19;20394;-63
2022/04/24 05:36:55;;;;;;;1.27;0.30;;;8.30;37.20;;;;;;7365051;19;20009;-63
2022/04/24 05:39:25;;;;;;;0.65;0.30;;;8.30;37.00;;;;;;7364768;19;20018;-62
2022/04/24 05:41:55;;;;;;;0.82;0.30;;;8.30;38.70;;;;;;7365022;19;20018;-63
2022/04/24 05:44:24;;;;;;;1.05;0.45;;;8.30;38.00;;;;;;7387625;19;20093;-62
2022/04/24 05:46:54;;;;;;;0.93;0.20;;;8.30;37.40;;;;;;7363793;19;20052;-63
2022/04/24 05:49:24;;;;;;;1.33;0.30;;;8.30;39.50;;;;;;7363559;19;20011;-63
2022/04/24 05:51:57;;;;;;;1.70;0.40;;;8.20;39.40;;;;;;7366927;19;20017;-63
2022/04/24 05:54:29;;;;;;;0.88;0.30;;;8.20;40.70;;;;;;7365803;19;20010;-63
2022/04/24 05:56:59;;;;;;;0.90;0.30;;;8.10;40.60;;;;;;7362953;19;20018;-63
2022/04/24 05:59:29;;;;;;;1.10;0.20;;;8.10;40.70;;;;;;7385139;19;20098;-63
2022/04/24 06:01:59;;;;;;;0.93;0.30;;;8.00;41.10;;;;;;7365569;19;20015;-63
2022/04/24 06:04:29;;;;;;;1.15;0.30;;;8.00;42.70;;;;;;7364932;19;20026;-63
2022/04/24 06:07:01;;;;;;;0.32;0.17;;;8.10;44.00;;;;;;7362886;19;20017;-63
2022/04/24 06:09:31;;;;;;;0.63;0.30;;;8.00;43.40;;;;;;7364016;19;20010;-63
2022/04/24 06:12:01;;;;;;;2.72;0.52;;;8.00;43.60;;;;;;7365836;19;20034;-64
2022/04/24 06:14:31;;;;;;;2.00;0.63;;;8.00;42.90;;;;;;7386030;19;20024;-63
2022/04/24 06:17:04;;;;;;;0.43;0.30;;;8.00;44.60;;;;;;7361454;19;20078;-64
2022/04/24 06:19:37;;;;;;;1.55;0.30;;;8.00;43.90;;;;;;7363404;19;20467;-63
2022/04/24 06:22:10;;;;;;;1.20;0.13;;;7.90;42.70;;;;;;7364892;19;20025;-64
2022/04/24 06:24:39;;;;;;;0.77;0.30;;;8.00;44.50;;;;;;7364779;19;20065;-63
2022/04/24 06:27:10;;;;;;;0.60;0.20;;;8.00;44.50;;;;;;7360992;19;20162;-63
2022/04/24 06:29:40;;;;;;;0.68;0.20;;;7.90;42.60;;;;;;7385386;19;20655;-62
2022/04/24 06:32:11;;;;;;;1.55;0.20;;;7.90;44.40;;;;;;7365716;19;20090;-63
2022/04/24 06:34:41;;;;;;;0.45;0.20;;;7.90;44.50;;;;;;7363721;19;20471;-63
2022/04/24 06:37:14;;;;;;;0.50;0.30;;;7.90;44.50;;;;;;7360581;19;21155;-61
2022/04/24 06:39:44;;;;;;;0.88;0.30;;;7.90;44.50;;;;;;7362318;19;20014;-63
2022/04/24 06:42:14;;;;;;;0.43;0.28;;;7.90;45.00;;;;;;7364758;19;20021;-62
2022/04/24 06:44:45;;;;;;;0.30;0.10;;;7.90;44.50;;;;;;7368253;19;20573;-62
2022/04/24 06:47:15;;;;;;;1.05;0.20;;;7.90;43.60;;;;;;7383228;19;20014;-63
2022/04/24 06:49:44;;;;;;;0.68;0.40;;;8.00;43.60;;;;;;7362286;19;20015;-62
2022/04/24 06:52:17;;;;;;;1.00;0.20;;;8.00;44.10;;;;;;7363620;19;20119;-62
2022/04/24 06:54:47;;;;;;;0.68;0.20;;;8.10;44.80;;;;;;7360827;19;20021;-63
2022/04/24 06:57:17;;;;;;;0.90;0.20;;;8.10;44.70;;;;;;7358905;19;20635;-63
2022/04/24 06:59:47;;;;;;;0.50;0.13;;;8.10;44.70;;;;;;7362645;19;20014;-63
2022/04/24 07:02:17;;;;;;;0.15;0.13;;;8.20;45.80;;;;;;7384732;19;20620;-63
2022/04/24 07:04:47;;;;;;;0.75;0.30;;;8.20;44.00;;;;;;7362939;19;20018;-63
2022/04/24 07:07:19;;;;;;;2.33;0.38;;;8.30;43.90;;;;;;7359466;19;20355;-62
2022/04/24 07:09:49;;;;;;;0.75;0.28;;;8.20;43.20;;;;;;7364083;19;20104;-62
2022/04/24 07:12:19;;;;;;;1.38;0.20;;;8.30;43.70;;;;;;7363498;19;20081;-62
2022/04/24 07:14:49;;;;;;;0.35;0.20;;;8.30;43.10;;;;;;7362462;19;20371;-62
2022/04/24 07:17:19;;;;;;;0.75;0.30;;;8.30;43.90;;;;;;7379411;19;20101;-62
2022/04/24 07:19:49;;;;;;;1.10;0.30;;;8.30;43.60;;;;;;7362376;19;20018;-62
2022/04/24 07:22:21;;;;;;;0.30;0.20;;;8.30;43.60;;;;;;7363780;19;20110;-63
2022/04/24 07:24:51;;;;;;;0.28;0.13;;;8.30;42.80;;;;;;7363223;19;20010;-63
2022/04/24 07:27:21;;;;;;;0.43;0.10;;;8.30;42.80;;;;;;7358371;19;20094;-63
2022/04/24 07:29:51;;;;;;;0.40;0.20;;;8.40;41.90;;;;;;7362319;19;20057;-63
2022/04/24 07:32:21;;;;;;;0.60;0.28;;;8.40;40.90;;;;;;7385132;19;20010;-62
2022/04/24 07:34:50;;;;;;;0.25;0.20;;;8.50;41.50;;;;;;7362126;19;20445;-63
2022/04/24 07:37:23;;;;;;;1.00;0.52;;;8.50;40.90;;;;;;7358157;19;20015;-63
2022/04/24 07:39:53;;;;;;;0.45;0.30;;;8.40;42.90;;;;;;7361852;19;20035;-62
2022/04/24 07:42:23;;;;;;;2.00;0.50;;;8.40;43.30;;;;;;7363448;19;20003;-63
2022/04/24 07:44:53;;;;;;;0.52;0.22;;;8.40;44.50;;;;;;7362769;19;20116;-64
2022/04/24 07:47:23;;;;;;;1.55;0.32;;;8.40;44.50;;;;;;7380261;19;20082;-62
2022/04/24 07:49:53;;;;;;;0.35;0.30;;;8.40;45.20;;;;;;7361428;19;20013;-63
2022/04/24 07:52:26;;;;;;;0.80;0.30;;;8.40;45.00;;;;;;7361233;19;20014;-62
2022/04/24 07:54:55;;;;;;;0.32;0.30;;;8.40;46.60;;;;;;7362565;19;20090;-62
2022/04/24 07:57:25;;;;;;;1.52;0.60;;;8.40;46.60;;;;;;7357691;19;20010;-62
2022/04/24 07:59:55;;;;;;;1.30;0.50;;;8.40;46.70;;;;;;7360935;19;20485;-61
2022/04/24 08:02:25;;;;;;;1.58;0.43;;;8.40;46.70;;;;;;7384042;19;20014;-63
2022/04/24 08:04:55;;;;;;;2.10;0.50;;;8.40;46.40;;;;;;7359417;19;20015;-63
2022/04/24 08:07:27;;;;;;;0.65;0.50;;;8.40;47.20;;;;;;7364397;19;20016;-63
2022/04/24 08:09:57;;;;;;;2.97;0.77;;;8.40;46.90;;;;;;7370381;19;20493;-63
2022/04/24 08:12:27;;;;;;;1.33;0.50;;;8.50;47.20;;;;;;7369190;19;20082;-63
2022/04/24 08:14:57;;;;;;;0.88;0.55;;;8.50;46.90;;;;;;7365383;19;20421;-63
2022/04/24 08:17:27;;;;;;;1.05;0.55;;;8.50;46.60;;;;;;7384034;19;21226;-62
2022/04/24 08:19:57;;;;;;;0.80;0.40;;;8.50;46.10;;;;;;7368880;19;20011;-62
2022/04/24 08:22:37;;;;;;;0.73;0.40;;;8.50;45.80;;;;;;7367994;19;20014;-62
2022/04/24 08:25:09;;;;;;;0.80;0.50;;;8.60;47.00;;;;;;7369411;19;20014;-62
2022/04/24 08:27:39;;;;;;;1.33;0.63;;;8.70;46.40;;;;;;7360994;19;20094;-63
2022/04/24 08:30:14;;;;;;;0.93;0.60;;;8.70;46.70;;;;;;7369861;19;20010;-63
2022/04/24 08:32:44;;;;;;;1.20;0.70;;;8.70;46.40;;;;;;7380926;19;20080;-63
2022/04/24 08:35:16;;;;;;;0.90;0.50;;;8.60;46.00;;;;;;7388803;19;20007;-64
2022/04/24 08:37:49;;;;;;;1.13;0.85;;;8.70;46.20;;;;;;7358752;19;20026;-62
2022/04/24 08:40:24;;;;;;;0.95;0.70;;;8.60;45.20;;;;;;7367395;19;20470;-63
2022/04/24 08:42:54;;;;;;;2.20;0.60;;;8.70;45.30;;;;;;7369207;19;20011;-63
2022/04/24 08:45:27;;;;;;;1.45;0.90;;;8.60;44.10;;;;;;7367801;19;20073;-62
2022/04/24 08:47:58;;;;;;;1.58;0.73;;;8.60;44.00;;;;;;7361014;19;20011;-63
2022/04/24 08:50:31;;;;;;;2.25;0.80;;;8.70;45.00;;;;;;7391413;19;20010;-63
2022/04/24 08:53:03;;;;;;;1.50;0.68;;;8.80;45.40;;;;;;7367789;19;20018;-62
2022/04/24 08:55:35;;;;;;;1.60;0.63;;;8.80;45.00;;;;;;7367770;19;20010;-64
2022/04/24 08:58:05;;;;;;;1.55;0.60;;;8.80;44.90;;;;;;7360845;19;20378;-62
2022/04/24 09:00:35;;;;;;;0.70;0.52;;;8.90;45.40;;;;;;7369395;19;20362;-62
2022/04/24 09:03:07;;;;;;;0.63;0.47;;;8.90;45.40;;;;;;7367910;19;20183;-62
2022/04/24 09:05:37;;;;;;;1.42;0.60;;;8.90;45.20;;;;;;7387729;19;20022;-62
2022/04/24 09:08:11;;;;;;;2.88;0.82;;;8.90;45.40;;;;;;7359961;19;20013;-62
2022/04/24 09:11:02;;;;;;;0.80;0.60;;;8.90;45.20;;;;;;7365623;19;20010;-62
2022/04/24 09:14:14;;;;;;;1.50;0.68;;;8.90;45.60;;;;;;7367003;19;20011;-62
2022/04/24 09:16:27;;;;;;;1.10;0.70;;;8.90;45.50;;;;;;7366178;19;20010;-62
2022/04/24 09:18:57;;;;;;;1.48;0.73;;;9.00;46.60;;;;;;7358810;19;20528;-62
2022/04/24 09:21:28;;;;;;;1.02;0.50;;;9.10;46.70;;;;;;7367765;19;20411;-62
2022/04/24 09:24:03;;;;;;;1.98;0.65;;;9.10;47.00;;;;;;7366004;19;20077;-62
2022/04/24 09:26:33;;;;;;;1.83;0.73;;;9.00;47.00;;;;;;7389186;19;21155;-61
2022/04/24 09:29:15;;;;;;;0.90;0.60;;;9.10;48.50;;;;;;7360718;19;20010;-63
2022/04/24 09:31:49;;;;;;;1.33;0.90;;;9.20;48.60;;;;;;7365225;19;20007;-63
2022/04/24 09:34:21;;;;;;;2.43;1.20;;;9.10;47.80;;;;;;7365410;19;20014;-63
2022/04/24 09:37:03;;;;;;;3.42;2.13;;;9.00;49.10;;;;;;7364859;19;20093;-63
2022/04/24 09:39:37;;;;;;;2.35;1.17;;;9.20;50.10;;;;;;7362847;19;20781;-63
2022/04/24 09:42:09;;;;;;;1.90;1.05;;;9.10;49.70;;;;;;7365743;19;20010;-62
2022/04/24 09:44:46;;;;;;;2.17;1.20;;;9.00;50.00;;;;;;7387937;19;20102;-64
2022/04/24 09:47:38;;;;;;;2.03;0.98;;;9.10;51.10;;;;;;7257211;19;2004761;-62
2022/04/24 09:50:12;;;;;;;2.35;0.70;;;9.10;50.80;;;;;;7390140;19;20443;-63
2022/04/24 09:52:51;;;;;;;1.00;0.77;;;9.20;51.10;;;;;;7365381;19;20011;-62
2022/04/24 09:55:24;;;;;;;1.73;0.90;;;9.20;51.40;;;;;;7365475;19;20097;-63
2022/04/24 09:57:55;;;;;;;1.55;0.70;;;9.20;51.70;;;;;;7357856;19;20778;-63
2022/04/24 10:00:26;;;;;;;2.97;1.10;;;9.30;51.30;;;;;;7366670;19;20010;-64
2022/04/24 10:02:57;;;;;;;1.33;0.90;;;9.40;52.20;;;;;;7365296;19;20014;-64
2022/04/24 10:05:28;;;;;;;3.05;0.73;;;9.40;51.70;;;;;;7385181;19;20115;-64
2022/04/24 10:07:58;;;;;;;1.48;0.75;;;9.30;49.80;;;;;;7357797;19;20010;-64
2022/04/24 10:10:31;;;;;;;2.67;0.90;;;9.50;51.50;;;;;;7366828;19;20482;-63
2022/04/24 10:13:08;;;;;;;1.42;0.70;;;9.50;50.90;;;;;;7365608;19;20384;-62
2022/04/24 10:15:40;;;;;;;2.22;1.02;;;9.30;50.40;;;;;;7364523;19;20097;-64
2022/04/24 10:18:37;;;;;;;2.53;0.88;;;9.40;50.70;;;;;;7356969;19;20342;-63
2022/04/24 10:21:29;;;;;;;1.38;0.80;;;9.50;50.10;;;;;;7366210;19;20070;-63
2022/04/24 10:24:09;;;;;;;1.98;0.85;;;9.50;50.00;;;;;;7364693;19;20021;-63
2022/04/24 10:26:53;;;;;;;1.48;0.80;;;9.50;50.00;;;;;;7387356;19;20019;-64
2022/04/24 10:29:23;;;;;;;1.75;1.00;;;9.50;50.00;;;;;;7361074;19;20410;-64
2022/04/24 10:31:53;;;;;;;2.65;0.90;;;9.50;51.00;;;;;;7364896;19;20010;-63
2022/04/24 10:34:24;;;;;;;2.63;1.08;;;9.60;51.20;;;;;;7363117;19;20466;-62
2022/04/24 10:36:58;;;;;;;1.63;1.25;;;9.40;49.90;;;;;;7363081;19;20077;-63
2022/04/24 10:39:33;;;;;;;1.38;0.82;;;9.50;51.20;;;;;;7360316;19;20010;-65
2022/04/24 10:42:12;;;;;;;2.08;0.90;;;9.50;51.70;;;;;;7364475;19;20019;-64
2022/04/24 10:44:52;;;;;;;5.25;1.05;;;9.50;51.20;;;;;;7384644;19;20462;-64
2022/04/24 10:47:22;;;;;;;1.73;0.80;;;9.40;49.90;;;;;;7360825;19;20440;-63
2022/04/24 10:50:06;;;;;;;3.05;0.82;;;9.50;50.60;;;;;;7361381;19;20011;-63
2022/04/24 10:52:40;;;;;;;0.93;0.73;;;9.60;50.70;;;;;;7364151;19;20534;-63
2022/04/24 10:55:12;;;;;;;1.95;0.82;;;9.60;50.10;;;;;;7363486;19;20015;-63
2022/04/24 10:57:50;;;;;;;2.28;0.90;;;9.60;49.80;;;;;;7357729;19;20690;-63
2022/04/24 11:00:23;;;;;;;2.35;1.10;;;9.80;50.60;;;;;;7363155;19;20344;-64
2022/04/24 11:02:54;;;;;;;1.95;1.20;;;9.70;49.90;;;;;;7361906;19;20078;-63
2022/04/24 11:05:26;;;;;;;2.63;0.90;;;9.80;50.20;;;;;;7383625;19;20020;-63
2022/04/24 11:08:04;;;;;;;2.78;1.00;;;9.80;49.80;;;;;;7356457;19;20319;-63
2022/04/24 11:10:41;;;;;;;3.30;1.20;;;9.80;49.60;;;;;;7364241;19;20021;-63
2022/04/24 11:13:21;;;;;;;1.77;1.00;;;9.90;50.30;;;;;;7362851;19;20011;-65
2022/04/24 11:15:53;;;;;;;1.83;1.20;;;9.90;49.20;;;;;;7362452;19;20019;-64
2022/04/24 11:18:24;;;;;;;1.30;1.00;;;10.00;48.30;;;;;;7354669;19;20369;-62
2022/04/24 11:21:00;;;;;;;4.78;1.35;;;10.00;47.30;;;;;;7364424;19;20482;-62
2022/04/24 11:23:31;;;;;;;2.10;1.40;;;9.90;45.90;;;;;;7384703;19;20689;-64
2022/04/24 11:26:05;;;;;;;2.83;1.27;;;10.30;48.90;;;;;;7363983;19;20359;-64
2022/04/24 11:28:39;;;;;;;2.58;1.20;;;10.30;47.20;;;;;;7355195;19;20470;-63
2022/04/24 11:31:17;;;;;;;2.97;1.20;;;10.30;45.60;;;;;;7363563;19;20017;-64
2022/04/24 11:33:56;;;;;;;6.53;1.58;;;10.50;46.00;;;;;;7362235;19;20042;-63
2022/04/24 11:36:31;;;;;;;2.28;1.30;;;10.70;46.00;;;;;;7364565;19;20003;-63
2022/04/24 11:39:02;;;;;;;1.45;1.13;;;10.60;41.20;;;;;;7353975;19;20350;-63
2022/04/24 11:41:33;;;;;;;2.88;1.20;;;10.60;40.00;;;;;;7384514;19;20010;-63
2022/04/24 11:50:13;;;;;;;1.88;0.90;;;10.90;42.50;;;;;;7360734;19;20021;-63
2022/04/24 11:50:17;;;;;;;1.90;0.80;;;10.90;40.80;;;;;;7361551;19;20010;-63
2022/04/24 11:53:07;;;;;;;2.10;1.13;;;10.90;40.60;;;;;;7362410;19;20010;-64
2022/04/24 11:58:19;;;;;;;2.85;0.90;;;10.70;38.90;;;;;;7352868;19;20362;-64
2022/04/24 12:00:52;;;;;;;1.35;0.70;;;10.90;42.10;;;;;;7362604;19;20017;-61
2022/04/24 12:03:24;;;;;;;1.90;0.70;;;10.60;37.60;;;;;;7362103;19;20107;-63
2022/04/24 12:06:01;;;;;;;0.75;0.55;;;10.70;40.00;;;;;;7362391;19;20022;-62
2022/04/24 12:08:45;;;;;;;0.88;0.63;;;10.70;38.80;;;;;;7376142;19;20014;-62
2022/04/24 12:11:26;;;;;;;1.00;0.90;;;10.60;38.50;;;;;;7362811;19;20015;-62
2022/04/24 12:14:05;;;;;;;2.03;0.82;;;10.70;37.60;;;;;;7359466;19;20054;-62
2022/04/24 12:16:39;;;;;;;1.05;0.60;;;10.80;39.70;;;;;;7361806;19;20007;-63
2022/04/24 12:19:12;;;;;;;0.88;0.80;;;11.10;39.80;;;;;;7354822;19;20509;-63
2022/04/24 12:21:50;;;;;;;1.17;0.85;;;11.40;37.50;;;;;;7363399;19;20006;-62
2022/04/24 12:24:21;;;;;;;1.15;0.60;;;11.30;32.40;;;;;;7360002;19;20018;-62
2022/04/24 12:26:52;;;;;;;0.77;0.50;;;11.50;34.10;;;;;;7360029;19;20086;-63
2022/04/24 12:29:22;;;;;;;1.20;0.47;;;11.60;34.20;;;;;;7379368;19;20015;-63
2022/04/24 12:31:55;;;;;;;1.30;0.80;;;11.20;29.70;;;;;;7361648;19;20538;-62
2022/04/24 12:34:25;;;;;;;1.20;0.65;;;11.20;33.80;;;;;;7360502;19;20011;-61
2022/04/24 12:36:55;;;;;;;1.52;0.50;;;11.10;34.80;;;;;;7359469;19;20017;-62
2022/04/24 12:39:28;;;;;;;0.85;0.55;;;10.90;29.50;;;;;;7357324;19;20028;-62
2022/04/24 12:41:58;;;;;;;1.35;0.60;;;10.80;34.90;;;;;;7362415;19;20022;-62
2022/04/24 12:44:28;;;;;;;1.02;0.60;;;10.70;33.90;;;;;;7381932;19;20029;-62
2022/04/24 12:47:07;;;;;;;1.40;0.70;;;10.70;36.30;;;;;;7357383;19;20034;-62
2022/04/24 12:49:37;;;;;;;2.55;0.73;;;10.50;35.90;;;;;;7357904;19;20578;-62
2022/04/24 12:52:07;;;;;;;0.63;0.50;;;10.50;37.50;;;;;;7361572;19;20085;-62
2022/04/24 12:54:37;;;;;;;1.42;0.65;;;10.70;39.30;;;;;;7365311;19;20049;-62
2022/04/24 12:57:07;;;;;;;1.50;0.90;;;10.60;37.60;;;;;;7363411;19;20011;-62
2022/04/24 12:59:39;;;;;;;1.60;0.60;;;10.60;37.60;;;;;;7385818;19;20082;-62
2022/04/24 13:02:13;;;;;;;1.15;0.73;;;10.50;39.10;;;;;;7368400;19;20352;-62
2022/04/24 13:04:44;;;;;;;4.70;2.58;;;10.40;38.80;;;;;;7365851;19;20037;-62
2022/04/24 13:07:13;;;;;;;5.25;3.28;;;10.40;40.90;;;;;;7362582;19;20027;-61
2022/04/24 13:09:43;;;;;;;9.85;4.97;;;10.30;41.60;;;;;;7363961;19;20011;-62
2022/04/24 13:12:14;;;;;;;14.85;6.13;;;10.50;44.60;;;;;;7367178;19;20375;-63
2022/04/24 13:14:44;;;;;;;11.07;4.75;;;10.40;43.70;;;;;;7370689;19;20470;-63
2022/04/24 13:19:59;;;;;;;;;;;10.40;43.60;;;;;;7366179;19;20006;-64